Language: 


Des rapports , des résumés tant et plus, au choix de chacun....


Données statistiques de la station
Quotidien Rapport Mars 1, 2017 Unités:  Anglais    Métrique   les deux
« Précédent Jour
Suivant Jour »
Quotidien Hebdomadaire Mensuel Annuel Actuel
  Haut: Bas: Moyen:
Température: 50.2 °F 32 °F 46.4 °F
Pt de rosée: 47.3 °F 39.4 °F 43.2 °F
Humidité: 98 % 0 % 88 %
Vitesse du vent: 23.3 mph 0 mph 10.1 mph
Rafales: 27.1 mph - -
Vent:- - WSW
Pression: 29.6 in 0 in -
Précipitation: 0.11 in    
Historical Graphs
 
 
Données statistiques pour Mars 1, 2017
Heure Température Point de rosée Pression Vent Vitesse du vent Refales Humidité Pluie (taux horaire)
00:01 42.6 °F 41.7 °F 29.4 in SSW 8.1 mph 13 mph 97 % 0.01 in
00:07 42.8 °F 42.1 °F 29.4 in WSW 7.6 mph 14.3 mph 97 % 0.01 in
00:12 43 °F 42.1 °F 29.4 in SSW 10.1 mph 14.3 mph 97 % 0.01 in
00:17 43.2 °F 42.3 °F 29.4 in WSW 9.6 mph 13 mph 97 % 0.01 in
00:22 43.3 °F 42.4 °F 29.4 in SW 8.7 mph 12.8 mph 97 % 0.01 in
00:27 43.5 °F 42.6 °F 29.4 in WSW 8.1 mph 12.8 mph 97 % 0.01 in
00:32 43.5 °F 42.8 °F 29.4 in SSW 10.3 mph 12.5 mph 97 % 0 in
00:37 43.9 °F 43 °F 29.4 in SSW 8.1 mph 12.5 mph 97 % 0 in
00:42 43.9 °F 43 °F 29.4 in WSW 10.1 mph 13.2 mph 97 % 0 in
00:47 44.1 °F 43.2 °F 29.4 in SW 9.8 mph 13.2 mph 97 % 0 in
00:52 44.1 °F 43.2 °F 29.4 in WSW 10.7 mph 14.8 mph 97 % 0 in
00:57 44.2 °F 43.3 °F 29.4 in WSW 15.2 mph 15.2 mph 97 % 0 in
01:02 44.2 °F 43.3 °F 29.4 in SW 10.3 mph 15.2 mph 97 % 0 in
01:07 44.2 °F 43.3 °F 29.4 in WSW 11.2 mph 13.6 mph 97 % 0 in
01:12 44.2 °F 43.5 °F 29.4 in WSW 10.7 mph 13.6 mph 97 % 0 in
01:17 44.2 °F 43.5 °F 29.4 in SW 12.1 mph 15.4 mph 97 % 0 in
01:22 44.4 °F 43.7 °F 29.4 in West 19.5 mph 19.5 mph 97 % 0 in
01:27 44.8 °F 43.5 °F 29.4 in West 12.3 mph 19.9 mph 96 % 0 in
01:32 45 °F 43.9 °F 29.4 in WSW 11 mph 19.9 mph 96 % 0.01 in
01:37 45 °F 43.9 °F 29.4 in WSW 14.5 mph 14.5 mph 96 % 0.01 in
01:42 45.1 °F 44.1 °F 29.4 in West 19.5 mph 20.4 mph 96 % 0.01 in
01:47 45.1 °F 43.9 °F 29.4 in WSW 15.4 mph 23.7 mph 95 % 0.01 in
01:52 45.3 °F 43.9 °F 29.4 in WSW 23 mph 23.9 mph 94 % 0.01 in
01:57 45.7 °F 43.2 °F 29.4 in West 21.9 mph 23.9 mph 91 % 0.01 in
02:02 32 °F 42.6 °F 0 in Calm     0 % 0.01 in
02:07 45.9 °F 42.3 °F 29.4 in West 14.3 mph 25.7 mph 87 % 0.01 in
02:12 45.9 °F 42.1 °F 29.4 in WSW 15.2 mph 25.7 mph 86 % 0.01 in
02:17 46 °F 41.9 °F 29.4 in WSW 19.7 mph 25.7 mph 85 % 0.01 in
02:22 46 °F 41.5 °F 29.4 in West 18.6 mph 25.9 mph 84 % 0.01 in
02:27 46 °F 41.2 °F 29.4 in West 23 mph 25.9 mph 83 % 0.01 in
02:32 46.2 °F 41.2 °F 29.4 in West 17.7 mph 25.9 mph 82 % 0 in
02:37 46.2 °F 40.8 °F 29.4 in West 15.2 mph 27.1 mph 81 % 0 in
02:42 46.6 °F 40.8 °F 29.4 in West 17.4 mph 27.1 mph 81 % 0 in
02:47 46.6 °F 40.6 °F 29.4 in West 22.4 mph 25.9 mph 80 % 0 in
02:52 46.6 °F 40.5 °F 29.4 in West 17.2 mph 25.9 mph 79 % 0 in
02:57 46.6 °F 40.3 °F 29.4 in West 15.2 mph 23.3 mph 79 % 0 in
03:02 46.6 °F 40.6 °F 29.4 in West 14.8 mph 20.8 mph 80 % 0 in
03:07 46.6 °F 40.6 °F 29.4 in West 12.8 mph 25.5 mph 80 % 0 in
03:12 46.6 °F 40.3 °F 29.4 in West 17.2 mph 25.5 mph 79 % 0 in
03:17 46.6 °F 40.3 °F 29.4 in WSW 18.6 mph 23.5 mph 79 % 0 in
03:22 46.6 °F 40.3 °F 29.4 in West 20.4 mph 23.9 mph 79 % 0 in
03:27 46.6 °F 39.9 °F 29.4 in WSW 19.7 mph 23.9 mph 78 % 0 in
03:32 46.6 °F 39.9 °F 29.4 in West 10.7 mph 23.5 mph 78 % 0 in
03:37 46.6 °F 39.7 °F 29.4 in West 14.3 mph 22.8 mph 77 % 0 in
03:42 46.6 °F 39.9 °F 29.4 in West 17.4 mph 25.9 mph 78 % 0 in
03:47 46.6 °F 39.9 °F 29.4 in WSW 19 mph 25.9 mph 78 % 0 in
03:52 46.6 °F 39.9 °F 29.4 in WSW 14.8 mph 22.8 mph 78 % 0 in
03:57 46.6 °F 39.6 °F 29.4 in West 11.9 mph 22.8 mph 77 % 0 in
04:02 46.2 °F 39.6 °F 29.4 in West 22.1 mph 23.9 mph 77 % 0 in
04:07 46 °F 39.4 °F 29.4 in WSW 23.3 mph 23.9 mph 77 % 0 in
04:12 46 °F 39.4 °F 29.4 in WSW 15.9 mph 23.5 mph 77 % 0 in
04:17 45.9 °F 39.6 °F 29.4 in WSW 8.5 mph 23.5 mph 78 % 0 in
04:22 46 °F 39.4 °F 29.4 in West 17.7 mph 24.2 mph 77 % 0 in
04:27 45.9 °F 39.6 °F 29.4 in West 17.7 mph 24.2 mph 78 % 0 in
04:32 45.9 °F 39.6 °F 29.4 in WSW 13.2 mph 21.9 mph 78 % 0 in
04:38 45.7 °F 39.4 °F 29.4 in WSW 10.5 mph 17.7 mph 79 % 0 in
04:43 45.9 °F 39.6 °F 29.4 in West 17.4 mph 25.1 mph 79 % 0 in
04:48 45.9 °F 39.6 °F 29.4 in West 11 mph 25.1 mph 79 % 0 in
04:53 45.9 °F 39.6 °F 29.4 in West 14.5 mph 19.5 mph 79 % 0 in
04:57 45.9 °F 39.6 °F 29.4 in WSW 12.5 mph 19.7 mph 79 % 0 in
05:03 45.7 °F 39.4 °F 29.4 in West 12.3 mph 19.7 mph 79 % 0 in
05:08 45.7 °F 39.7 °F 29.4 in West 10.3 mph 15.4 mph 80 % 0 in
05:13 45.3 °F 39.6 °F 29.4 in WSW 10.1 mph 19.5 mph 80 % 0 in
05:18 45.3 °F 39.9 °F 29.4 in West 8.1 mph 19.5 mph 81 % 0 in
05:23 45.1 °F 39.7 °F 29.4 in West 5.4 mph 15.2 mph 81 % 0 in
05:27 45.1 °F 39.7 °F 29.4 in West 13 mph 14.3 mph 81 % 0 in
05:33 45.1 °F 40.1 °F 29.4 in West 7.6 mph 14.3 mph 82 % 0 in
05:38 45.1 °F 40.5 °F 29.5 in West 23 mph 23 mph 83 % 0 in
05:42 45.1 °F 40.3 °F 29.5 in WSW 10.7 mph 23 mph 83 % 0 in
05:48 45.1 °F 40.5 °F 29.5 in SW 14.8 mph 23.9 mph 84 % 0 in
05:53 45 °F 40.6 °F 29.5 in West 10.3 mph 23.9 mph 85 % 0 in
05:58 45 °F 40.8 °F 29.5 in West 17.4 mph 17.4 mph 86 % 0.01 in
06:03 45 °F 41.2 °F 29.5 in West 12.1 mph 22.4 mph 87 % 0.01 in
06:08 45 °F 41.2 °F 29.5 in West 12.5 mph 22.4 mph 87 % 0.01 in
06:13 45 °F 41.5 °F 29.5 in SW 12.8 mph 17.7 mph 88 % 0.01 in
06:18 45 °F 42.1 °F 29.5 in West 10.3 mph 20.4 mph 90 % 0.01 in
06:23 45 °F 42.1 °F 29.5 in West 10.3 mph 20.4 mph 90 % 0.01 in
06:28 44.8 °F 41.9 °F 29.5 in West 13 mph 20.4 mph 90 % 0.01 in
06:33 44.4 °F 41.5 °F 29.5 in West 7.6 mph 16.8 mph 89 % 0.02 in
06:38 44.2 °F 41.4 °F 29.5 in West 10.3 mph 14.1 mph 89 % 0.02 in
06:43 44.2 °F 41.4 °F 29.5 in WSW 10.5 mph 13.9 mph 89 % 0.02 in
06:48 44.2 °F 41.5 °F 29.5 in WSW 11 mph 14.1 mph 90 % 0.02 in
06:53 44.2 °F 41.9 °F 29.5 in West 13 mph 14.1 mph 91 % 0.02 in
06:58 44.2 °F 41.9 °F 29.5 in West 14.1 mph 14.8 mph 91 % 0.01 in
07:03 44.2 °F 41.9 °F 29.5 in West 15.4 mph 15.4 mph 91 % 0.01 in
07:08 44.4 °F 41.7 °F 29.5 in WSW 12.5 mph 15.4 mph 90 % 0.01 in
07:13 44.4 °F 41.7 °F 29.5 in West 16.8 mph 16.8 mph 90 % 0.01 in
07:18 44.4 °F 41.2 °F 29.5 in WSW 13.2 mph 16.8 mph 88 % 0.01 in
07:23 44.4 °F 40.8 °F 29.5 in West 15.2 mph 16.8 mph 87 % 0.01 in
07:28 44.2 °F 40.6 °F 29.5 in West 10.5 mph 17 mph 87 % 0 in
07:33 44.2 °F 40.6 °F 29.5 in WSW 10.1 mph 17.4 mph 87 % 0 in
07:38 44.2 °F 40.5 °F 29.5 in West 11 mph 17.4 mph 87 % 0 in
07:43 44.2 °F 40.6 °F 29.5 in West 13.2 mph 17.7 mph 87 % 0 in
07:48 44.2 °F 40.6 °F 29.5 in WSW 12.1 mph 17.7 mph 87 % 0 in
07:53 44.2 °F 41 °F 29.5 in West 9.2 mph 15.4 mph 88 % 0 in
07:58 44.2 °F 41 °F 29.5 in WSW 8.1 mph 15.4 mph 88 % 0 in
08:03 44.2 °F 40.8 °F 29.5 in WNW 7.4 mph 12.8 mph 88 % 0 in
08:08 44.2 °F 40.8 °F 29.5 in West 4.9 mph 9.8 mph 88 % 0 in
08:13 44.1 °F 40.6 °F 29.5 in West 8.5 mph 9.6 mph 88 % 0 in
08:18 44.2 °F 41.2 °F 29.5 in West 7.4 mph 10.3 mph 89 % 0 in
08:23 44.2 °F 41.4 °F 29.5 in West 8.5 mph 10.3 mph 89 % 0 in
08:28 44.4 °F 41.5 °F 29.5 in West 5.8 mph 8.9 mph 89 % 0 in
08:33 44.4 °F 41.5 °F 29.5 in West 6 mph 8.7 mph 89 % 0 in
08:38 44.8 °F 41.7 °F 29.5 in WSW 6.5 mph 8.7 mph 89 % 0 in
08:43 45 °F 41.7 °F 29.5 in WSW 9.8 mph 11 mph 89 % 0 in
08:48 45 °F 41.7 °F 29.5 in West 8.1 mph 12.5 mph 89 % 0 in
08:53 45.1 °F 42.1 °F 29.5 in WSW 8.5 mph 12.5 mph 89 % 0 in
08:58 45.1 °F 42.1 °F 29.5 in West 8.1 mph 11.4 mph 89 % 0 in
09:03 45.1 °F 41.9 °F 29.5 in WSW 6.9 mph 11 mph 88 % 0 in
09:08 45.3 °F 42.1 °F 29.6 in WSW 7.6 mph 11 mph 88 % 0 in
09:13 45.7 °F 42.4 °F 29.6 in WSW 7.8 mph 9.6 mph 89 % 0 in
09:18 45.7 °F 42.4 °F 29.6 in WSW 11 mph 11.2 mph 89 % 0 in
09:23 45.9 °F 42.4 °F 29.6 in WSW 6.3 mph 11.2 mph 88 % 0 in
09:28 45.9 °F 42.6 °F 29.6 in WSW 6.5 mph 11 mph 88 % 0 in
09:33 46 °F 42.4 °F 29.6 in WSW 10.7 mph 11 mph 87 % 0 in
09:38 46 °F 42.3 °F 29.6 in WSW 8.7 mph 12.3 mph 86 % 0 in
09:43 46.2 °F 42.3 °F 29.6 in WSW 11 mph 13.4 mph 86 % 0 in
09:48 46.6 °F 42.3 °F 29.6 in WSW 13.4 mph 13.4 mph 85 % 0 in
09:53 46.6 °F 42.4 °F 29.6 in WSW 10.3 mph 13.4 mph 85 % 0 in
09:58 46.8 °F 42.3 °F 29.6 in WSW 9.4 mph 13.4 mph 84 % 0 in
10:03 47.1 °F 42.6 °F 29.6 in SW 9.6 mph 14.3 mph 84 % 0 in
10:04 47.1 °F 42.6 °F 29.6 in SW 9.6 mph 14.3 mph 84 % 0 in
10:09 47.3 °F 42.4 °F 29.5 in West 8.7 mph 14.8 mph 83 % 0 in
10:14 47.7 °F 42.8 °F 29.5 in WSW 9.8 mph 14.8 mph 83 % 0 in
10:19 47.8 °F 42.6 °F 29.5 in WSW 10.3 mph 13 mph 82 % 0 in
10:24 48 °F 42.8 °F 29.6 in WSW 8.7 mph 13 mph 82 % 0 in
10:29 48.2 °F 42.6 °F 29.6 in WSW 12.3 mph 17.7 mph 81 % 0 in
10:34 48.2 °F 42.3 °F 29.6 in WSW 8.7 mph 17.7 mph 80 % 0 in
10:39 48.2 °F 42.3 °F 29.6 in WSW 13.2 mph 14.8 mph 80 % 0 in
10:44 48.4 °F 42.4 °F 29.6 in West 10.5 mph 15.2 mph 80 % 0 in
10:49 48.2 °F 41.4 °F 29.6 in West 15.2 mph 15.4 mph 77 % 0 in
10:54 48.4 °F 41.9 °F 29.6 in WSW 13.2 mph 15.4 mph 78 % 0 in
10:59 48.4 °F 41.9 °F 29.6 in WSW 15.2 mph 17.7 mph 78 % 0 in
11:04 48.6 °F 42.1 °F 29.6 in WSW 10.3 mph 17.7 mph 78 % 0 in
11:09 48.7 °F 42.4 °F 29.6 in WSW 13.2 mph 15.4 mph 79 % 0 in
11:14 48.7 °F 42.4 °F 29.6 in West 9.8 mph 15.4 mph 79 % 0 in
11:19 48.7 °F 42.4 °F 29.6 in WSW 10.3 mph 15.9 mph 79 % 0 in
11:24 48.7 °F 43 °F 29.6 in WSW 11 mph 15.9 mph 80 % 0 in
11:29 48.9 °F 43 °F 29.6 in WSW 8.5 mph 13 mph 80 % 0 in
11:34 49.1 °F 43.5 °F 29.6 in WSW 7.4 mph 12.1 mph 81 % 0 in
11:39 49.5 °F 44.2 °F 29.6 in WSW 7.8 mph 8.5 mph 82 % 0 in
11:44 49.5 °F 43.5 °F 29.6 in WSW 13.6 mph 15.4 mph 80 % 0 in
11:45 49.5 °F 43.2 °F 29.6 in WSW 10.3 mph 15.4 mph 79 % 0 in
11:50 49.5 °F 42.3 °F 29.6 in SSW 10.1 mph 15.4 mph 76 % 0 in
11:55 49.8 °F 42.6 °F 29.6 in West 13.2 mph 13.2 mph 76 % 0 in
12:00 50 °F 42.4 °F 29.6 in WSW 12.5 mph 13.2 mph 75 % 0 in
12:05 50.2 °F 42.4 °F 29.6 in West 10.3 mph 14.3 mph 75 % 0 in
12:10 50.2 °F 41.2 °F 29.6 in WSW 10.7 mph 16.3 mph 71 % 0 in
12:15 50 °F 40.6 °F 29.6 in WSW 17.9 mph 17.9 mph 70 % 0 in
12:20 50 °F 41.4 °F 29.6 in WSW 13 mph 17.9 mph 72 % 0 in
12:25 49.8 °F 40.8 °F 29.6 in WSW 15.2 mph 19.2 mph 71 % 0 in
12:30 49.8 °F 41.9 °F 29.6 in WSW 10.5 mph 19.2 mph 74 % 0 in
12:35 49.6 °F 42.1 °F 29.6 in SSW 13.2 mph 15.7 mph 75 % 0 in
12:40 49.5 °F 43 °F 29.6 in SW 11 mph 17.2 mph 78 % 0 in
12:45 49.1 °F 43 °F 29.6 in WSW 12.5 mph 17.2 mph 79 % 0 in
12:50 48.9 °F 43 °F 29.6 in WSW 10.7 mph 17.2 mph 80 % 0 in
12:55 48.7 °F 43 °F 29.6 in WSW 13 mph 15.4 mph 80 % 0 in
13:00 48.4 °F 42.8 °F 29.6 in WSW 14.1 mph 15.4 mph 81 % 0 in
13:05 48.4 °F 42.8 °F 29.6 in SW 8.7 mph 15.4 mph 81 % 0 in
13:10 48.6 °F 43 °F 29.6 in WSW 10.5 mph 15.2 mph 81 % 0 in
13:15 48.4 °F 42.8 °F 29.6 in SW 9.4 mph 14.3 mph 81 % 0 in
13:20 48 °F 42.8 °F 29.6 in SSW 7.8 mph 14.5 mph 82 % 0 in
13:25 47.7 °F 43.2 °F 29.6 in SW 9.8 mph 16.3 mph 84 % 0 in
13:30 47.1 °F 43 °F 29.6 in SSW 8.1 mph 16.3 mph 85 % 0 in
13:35 46.9 °F 43 °F 29.6 in SW 7.4 mph 8.7 mph 86 % 0 in
13:40 46.8 °F 43.2 °F 29.6 in SW 4.9 mph 8.7 mph 87 % 0 in
13:45 46.8 °F 43.5 °F 29.6 in SSW 4.9 mph 8.7 mph 88 % 0 in
13:50 46.8 °F 43.7 °F 29.6 in SSW 5.4 mph 7.4 mph 89 % 0 in
13:55 46.8 °F 43.7 °F 29.6 in SW 3.4 mph 6.5 mph 89 % 0 in
14:00 46.9 °F 44.2 °F 29.6 in Calm   6.3 mph 90 % 0 in
14:05 47.1 °F 44.8 °F 29.6 in WSW 6.5 mph 6.9 mph 91 % 0 in
14:10 47.1 °F 44.8 °F 29.6 in SW 5.8 mph 7.8 mph 91 % 0 in
14:15 47.3 °F 45 °F 29.6 in SSW 7.4 mph 11.9 mph 91 % 0 in
14:20 47.3 °F 45 °F 29.6 in SW 12.5 mph 14.8 mph 91 % 0 in
14:25 47.5 °F 44.8 °F 29.6 in West 14.5 mph 17.2 mph 90 % 0 in
14:30 47.8 °F 44.8 °F 29.6 in WSW 10.3 mph 17.4 mph 89 % 0 in
14:35 47.8 °F 44.8 °F 29.6 in WSW 10.3 mph 15.2 mph 89 % 0 in
14:40 48 °F 44.8 °F 29.6 in SW 8.7 mph 12.8 mph 88 % 0 in
14:45 48 °F 45 °F 29.6 in WSW 9.8 mph 12.1 mph 89 % 0 in
14:50 48 °F 45 °F 29.6 in WSW 9.4 mph 10.5 mph 89 % 0 in
14:55 48 °F 44.8 °F 29.5 in SW 5.6 mph 10.5 mph 88 % 0 in
14:56 48 °F 44.8 °F 29.5 in SSW 6.5 mph 10.5 mph 88 % 0 in
15:01 47.8 °F 44.4 °F 29.5 in SW 8.7 mph 12.8 mph 88 % 0 in
15:06 47.8 °F 44.4 °F 29.5 in SW 8.7 mph 14.5 mph 88 % 0 in
15:11 47.8 °F 44.4 °F 29.5 in SW 10.1 mph 14.5 mph 88 % 0 in
15:16 47.8 °F 44.4 °F 29.5 in SSW 7.4 mph 14.3 mph 88 % 0 in
15:21 47.7 °F 44.2 °F 29.5 in SSW 8.5 mph 11.9 mph 88 % 0 in
15:26 47.5 °F 43.9 °F 29.5 in SW 8.1 mph 12.3 mph 87 % 0 in
15:31 47.5 °F 43.9 °F 29.5 in South 5.4 mph 12.3 mph 87 % 0 in
15:36 47.3 °F 43.7 °F 29.5 in South 8.7 mph 12.3 mph 87 % 0 in
15:41 47.3 °F 43.3 °F 29.5 in SW 9.8 mph 12.8 mph 86 % 0 in
15:46 47.3 °F 43.3 °F 29.5 in SSW 4.3 mph 13.2 mph 86 % 0 in
15:51 47.1 °F 43.2 °F 29.5 in SSW 3.6 mph 13.2 mph 86 % 0 in
15:56 46.9 °F 43 °F 29.5 in SSW 6.3 mph 10.7 mph 86 % 0 in
16:01 46.9 °F 42.6 °F 29.5 in SSE 5.8 mph 10.7 mph 85 % 0 in
16:06 46.9 °F 42.6 °F 29.5 in South 6.5 mph 10.7 mph 85 % 0 in
16:11 46.9 °F 43 °F 29.5 in South 5.8 mph 10.1 mph 86 % 0 in
16:16 46.9 °F 43 °F 29.5 in SSW 4 mph 10.7 mph 86 % 0 in
16:21 46.8 °F 42.8 °F 29.5 in SSW 5.4 mph 10.7 mph 86 % 0 in
16:26 46.9 °F 43.3 °F 29.5 in South 8.7 mph 8.7 mph 87 % 0 in
16:31 46.9 °F 43.3 °F 29.5 in South 6 mph 9.2 mph 87 % 0 in
16:36 46.9 °F 43.3 °F 29.5 in South 6.5 mph 9.8 mph 87 % 0 in
16:41 46.8 °F 43.2 °F 29.5 in South 5.4 mph 9.8 mph 87 % 0 in
16:46 46.8 °F 43.2 °F 29.5 in SSW 6.7 mph 8.5 mph 87 % 0 in
16:51 46.8 °F 43.5 °F 29.5 in SSE 6 mph 8.7 mph 88 % 0 in
16:56 46.6 °F 43.3 °F 29.5 in SSE 4.9 mph 9.8 mph 88 % 0 in
17:01 46.2 °F 43 °F 29.5 in SE 5.8 mph 9.8 mph 88 % 0 in
17:06 46 °F 43.2 °F 29.5 in South 2 mph 9.8 mph 89 % 0 in
17:11 45.9 °F 43.2 °F 29.5 in SSW 5.6 mph 8.5 mph 90 % 0 in
17:16 45.9 °F 43.5 °F 29.5 in SSE 3.4 mph 8.1 mph 91 % 0 in
17:21 45.9 °F 43.5 °F 29.5 in SSE 6 mph 10.5 mph 92 % 0 in
17:26 45.7 °F 43.7 °F 29.5 in Calm   10.5 mph 93 % 0 in
17:31 45.7 °F 43.7 °F 29.5 in ESE 0.9 mph 7.6 mph 93 % 0 in
17:36 45.7 °F 44.1 °F 29.5 in SSE 2.2 mph 5.6 mph 94 % 0.01 in
17:41 45.3 °F 43.9 °F 29.5 in SSE 6 mph 6 mph 94 % 0.01 in
17:46 45.3 °F 44.1 °F 29.5 in SSE 1.3 mph 8.1 mph 95 % 0.01 in
17:51 45.3 °F 44.1 °F 29.5 in SSE 3.8 mph 9.8 mph 95 % 0.01 in
17:56 45.1 °F 43.9 °F 29.5 in South 3.4 mph 9.8 mph 95 % 0.01 in
18:01 45.1 °F 43.9 °F 29.5 in SSE 6.3 mph 8.1 mph 95 % 0.01 in
18:06 45.1 °F 44.2 °F 29.5 in South 5.6 mph 9.8 mph 96 % 0.01 in
18:11 45.1 °F 44.2 °F 29.4 in SSE 6.3 mph 10.5 mph 96 % 0.01 in
18:16 45.1 °F 44.1 °F 29.4 in SSE 1.3 mph 10.5 mph 96 % 0.03 in
18:21 45.1 °F 44.1 °F 29.4 in SSE 2.9 mph 10.1 mph 96 % 0.03 in
18:26 45.1 °F 44.1 °F 29.4 in South 3.1 mph 6.5 mph 96 % 0.03 in
18:31 45.1 °F 44.1 °F 29.4 in SSE 0.9 mph 6 mph 96 % 0.03 in
18:36 45.1 °F 44.2 °F 29.4 in SSE 3.4 mph 4.3 mph 97 % 0.01 in
18:41 45.1 °F 44.2 °F 29.4 in Calm   4.7 mph 97 % 0.01 in
18:46 45.1 °F 44.2 °F 29.4 in South 2.5 mph 6 mph 97 % 0.01 in
18:51 45.1 °F 44.2 °F 29.4 in SSE 2.9 mph 6.5 mph 97 % 0.01 in
18:56 45.1 °F 44.4 °F 29.4 in South 7.4 mph 8.5 mph 97 % 0.01 in
19:01 45.1 °F 44.4 °F 29.4 in SW 3.8 mph 8.5 mph 97 % 0.01 in
19:06 45.3 °F 44.6 °F 29.4 in SW 3.1 mph 7.2 mph 97 % 0.01 in
19:11 45.3 °F 44.6 °F 29.4 in SSE 2.7 mph 4 mph 97 % 0 in
19:12 45.3 °F 44.6 °F 29.4 in SSW 3.4 mph 4 mph 97 % 0 in
19:17 45.7 °F 44.8 °F 29.4 in SSW 4 mph 6 mph 97 % 0.01 in
19:22 45.7 °F 44.8 °F 29.4 in Calm   6 mph 97 % 0.01 in
19:27 45.9 °F 45.1 °F 29.4 in South 3.6 mph 6.3 mph 98 % 0.01 in
19:32 45.9 °F 45.1 °F 29.4 in SSW 6 mph 7.6 mph 98 % 0.01 in
19:37 46.2 °F 45.5 °F 29.4 in SW 6.5 mph 8.5 mph 97 % 0.01 in
19:42 46.2 °F 45.5 °F 29.4 in WSW 4.9 mph 8.5 mph 97 % 0.01 in
19:47 46.6 °F 45.9 °F 29.4 in WSW 5.8 mph 9.4 mph 98 % 0.01 in
19:52 46.6 °F 46 °F 29.4 in WSW 8.7 mph 10.7 mph 98 % 0.01 in
19:57 46.8 °F 46.2 °F 29.4 in WSW 8.1 mph 10.7 mph 98 % 0.01 in
20:02 46.9 °F 46.6 °F 29.4 in West 17.2 mph 17.2 mph 98 % 0.01 in
20:07 47.1 °F 46.6 °F 29.4 in West 11 mph 17.2 mph 98 % 0.01 in
20:12 47.5 °F 46.9 °F 29.4 in West 10.3 mph 16.8 mph 98 % 0.01 in
20:17 47.5 °F 46.9 °F 29.4 in West 9.6 mph 16.8 mph 98 % 0 in
20:22 47.7 °F 47.1 °F 29.4 in West 6.3 mph 14.8 mph 98 % 0 in
20:27 47.7 °F 47.1 °F 29.4 in West 12.5 mph 13.2 mph 98 % 0 in
20:32 47.8 °F 47.3 °F 29.4 in West 10.5 mph 12.8 mph 98 % 0 in
20:37 47.8 °F 47.3 °F 29.4 in West 10.3 mph 13.2 mph 98 % 0 in
20:42 47.8 °F 47.3 °F 29.4 in West 8.7 mph 13.2 mph 98 % 0 in
20:47 47.8 °F 47.3 °F 29.4 in West 8.7 mph 14.8 mph 98 % 0 in
20:52 47.7 °F 47.1 °F 29.5 in WSW 12.3 mph 14.8 mph 98 % 0 in
20:57 47.7 °F 47.1 °F 29.5 in West 16.3 mph 17.2 mph 98 % 0 in
21:02 47.7 °F 47.1 °F 29.5 in West 11.9 mph 17.2 mph 98 % 0 in
21:07 47.7 °F 47.1 °F 29.5 in West 14.5 mph 17 mph 98 % 0 in
21:12 47.7 °F 47.1 °F 29.5 in WSW 15.2 mph 17.4 mph 98 % 0 in
21:17 47.7 °F 47.1 °F 29.5 in West 8.5 mph 17.4 mph 98 % 0 in
21:22 47.5 °F 46.9 °F 29.5 in West 10.1 mph 17.2 mph 98 % 0 in
21:27 47.3 °F 46.8 °F 29.5 in SW 7.6 mph 15.4 mph 98 % 0 in
21:32 47.1 °F 46.4 °F 29.5 in NNE 12.3 mph 15.4 mph 97 % 0 in
21:37 47.1 °F 46.4 °F 29.5 in West 12.8 mph 13.2 mph 97 % 0 in
21:42 46.9 °F 46.2 °F 29.5 in West 5.8 mph 12.8 mph 97 % 0 in
21:47 46.9 °F 46.2 °F 29.5 in WSW 8.1 mph 12.8 mph 97 % 0 in
21:52 46.9 °F 46.2 °F 29.5 in WSW 6.3 mph 12.8 mph 97 % 0 in
21:57 46.9 °F 46.2 °F 29.5 in WSW 10.5 mph 12.1 mph 97 % 0 in
22:02 46.8 °F 46 °F 29.5 in WSW 7.4 mph 12.1 mph 97 % 0 in
22:07 46.8 °F 46 °F 29.5 in WSW 7.4 mph 10.3 mph 97 % 0 in
22:12 46.8 °F 46 °F 29.5 in WSW 7.4 mph 7.4 mph 97 % 0 in
22:17 46.8 °F 46 °F 29.5 in WSW 7.4 mph 7.4 mph 97 % 0 in
22:22 46.8 °F 46 °F 29.5 in West 9.2 mph 9.2 mph 97 % 0 in
22:27 46.8 °F 46 °F 29.5 in West 9.2 mph 9.2 mph 97 % 0 in
22:32 46.8 °F 46 °F 29.5 in West 9.2 mph 9.2 mph 97 % 0 in
22:38 46.6 °F 45.9 °F 29.5 in West 9.2 mph 9.2 mph 97 % 0 in
22:43 46.6 °F 45.9 °F 29.5 in West 9.2 mph 9.2 mph 97 % 0 in
22:48 46.6 °F 45.9 °F 29.5 in West 9.2 mph 9.2 mph 97 % 0 in
22:53 46.6 °F 45.9 °F 29.5 in West 9.2 mph 9.2 mph 97 % 0 in
22:58 46.6 °F 45.9 °F 29.5 in West 9.2 mph 9.2 mph 97 % 0 in
23:03 46.6 °F 45.9 °F 29.5 in West 9.2 mph 9.2 mph 97 % 0 in
23:08 46.6 °F 45.9 °F 29.5 in West 9.2 mph 9.2 mph 97 % 0 in
23:13 46.6 °F 45.9 °F 29.5 in West 9.2 mph 9.2 mph 97 % 0 in
23:18 46.8 °F 46 °F 29.5 in WSW 9.2 mph 10.1 mph 97 % 0 in
23:23 46.9 °F 46.2 °F 29.5 in WSW 9.2 mph 10.1 mph 97 % 0.01 in
23:28 46.9 °F 46.2 °F 29.5 in WSW 8.7 mph 10.1 mph 97 % 0.01 in
23:33 46.9 °F 46.2 °F 29.5 in SW 5.6 mph 10.1 mph 97 % 0.01 in
23:38 46.9 °F 46.2 °F 29.5 in WSW 9.8 mph 10.5 mph 97 % 0.01 in
23:43 47.1 °F 46.6 °F 29.5 in West 10.3 mph 13 mph 98 % 0.02 in
23:48 47.3 °F 46.8 °F 29.5 in WSW 19.7 mph 19.7 mph 98 % 0.04 in
23:53 47.5 °F 46.9 °F 29.5 in WSW 19.7 mph 19.7 mph 98 % 0.04 in
23:58 47.5 °F 46.9 °F 29.5 in WSW 19.7 mph 19.7 mph 98 % 0.04 in
Le Gheer Warneton
Courtoisie de Weather Underground - 2.25 mb

Mise a jour : 17-12-17 03:24:12
Généré par Cumulus 1.9.4 (1099)